createdAt,value
2022-12-25T00:01:32.956Z,8.09
2022-12-25T00:04:00.336Z,7.99
2022-12-25T00:06:28.124Z,7.95
2022-12-25T00:08:55.338Z,7.90
2022-12-25T00:11:22.920Z,7.87
2022-12-25T00:13:51.065Z,7.90
2022-12-25T00:16:23.526Z,7.81
2022-12-25T00:18:58.944Z,7.78
2022-12-25T00:21:27.294Z,7.81
2022-12-25T00:23:57.282Z,7.74
2022-12-25T00:26:26.550Z,7.76
2022-12-25T00:28:57.996Z,7.89
2022-12-25T00:31:26.515Z,7.86
2022-12-25T00:33:54.115Z,7.88
2022-12-25T00:36:23.721Z,7.88
2022-12-25T00:38:51.034Z,7.94
2022-12-25T00:41:41.298Z,7.94
2022-12-25T00:44:11.371Z,7.95
2022-12-25T00:46:39.104Z,7.93
2022-12-25T00:49:07.079Z,8.07
2022-12-25T00:51:34.687Z,8.05
2022-12-25T00:54:02.508Z,7.98
2022-12-25T00:56:30.117Z,8.05
2022-12-25T00:58:57.402Z,8.13
2022-12-25T01:01:25.023Z,8.12
2022-12-25T01:03:52.340Z,8.08
2022-12-25T01:06:19.842Z,7.90
2022-12-25T01:09:05.768Z,8.02
2022-12-25T01:11:33.505Z,8.06
2022-12-25T01:14:00.854Z,8.06
2022-12-25T01:16:29.416Z,8.14
2022-12-25T01:18:56.754Z,8.10
2022-12-25T01:21:24.633Z,8.14
2022-12-25T01:23:53.573Z,8.15
2022-12-25T01:26:25.583Z,8.16
2022-12-25T01:28:54.002Z,8.12
2022-12-25T01:31:24.739Z,8.16
2022-12-25T01:33:52.839Z,8.15
2022-12-25T01:36:24.995Z,8.16
2022-12-25T01:38:54.100Z,8.13
2022-12-25T01:41:24.768Z,8.11
2022-12-25T01:44:04.918Z,8.06
2022-12-25T01:46:33.945Z,8.06
2022-12-25T01:49:15.147Z,8.02
2022-12-25T01:51:46.571Z,8.18
2022-12-25T01:54:24.488Z,8.06
2022-12-25T01:56:57.558Z,8.04
2022-12-25T01:59:28.032Z,8.09
2022-12-25T02:01:57.163Z,8.09
2022-12-25T02:04:38.960Z,8.01
2022-12-25T02:07:24.437Z,8.04
2022-12-25T02:09:52.886Z,8.08
2022-12-25T02:12:23.820Z,8.12
2022-12-25T02:14:58.344Z,8.12
2022-12-25T02:17:33.093Z,8.14
2022-12-25T02:20:27.681Z,8.23
2022-12-25T02:23:31.886Z,8.19
2022-12-25T02:26:45.349Z,8.12
2022-12-25T02:29:42.615Z,8.11
2022-12-25T02:32:32.003Z,8.29
2022-12-25T02:35:08.656Z,8.16
2022-12-25T02:38:11.022Z,8.06
2022-12-25T02:40:46.479Z,8.13
2022-12-25T02:43:45.091Z,8.13
2022-12-25T02:46:36.616Z,8.18
2022-12-25T02:49:33.915Z,8.25
2022-12-25T02:52:35.418Z,8.16
2022-12-25T02:55:32.552Z,8.27
2022-12-25T02:58:27.272Z,8.34
2022-12-25T03:01:22.635Z,8.28
2022-12-25T03:04:15.271Z,8.22
2022-12-25T03:06:59.666Z,8.17
2022-12-25T03:09:54.079Z,8.18
2022-12-25T03:12:38.847Z,8.13
2022-12-25T03:15:28.626Z,8.09
2022-12-25T03:18:01.570Z,8.13
2022-12-25T03:20:49.103Z,8.08
2022-12-25T03:23:44.654Z,7.93
2022-12-25T03:26:30.932Z,7.97
2022-12-25T03:28:58.237Z,7.89
2022-12-25T03:31:51.544Z,7.91
2022-12-25T03:35:07.255Z,7.90
2022-12-25T03:38:23.431Z,7.90
2022-12-25T03:41:12.196Z,7.93
2022-12-25T03:44:26.551Z,7.90
2022-12-25T03:47:37.353Z,7.92
2022-12-25T03:50:36.717Z,7.90
2022-12-25T03:53:29.639Z,7.81
2022-12-25T03:56:17.686Z,7.84
2022-12-25T03:59:23.191Z,7.94
2022-12-25T04:02:10.870Z,7.98
2022-12-25T04:04:57.055Z,8.00
2022-12-25T04:07:43.313Z,7.99
2022-12-25T04:10:29.499Z,8.09
2022-12-25T04:13:15.560Z,8.15
2022-12-25T04:16:01.326Z,8.15
2022-12-25T04:18:47.434Z,8.09
2022-12-25T04:21:33.283Z,8.10
2022-12-25T04:24:19.525Z,8.01
2022-12-25T04:27:05.228Z,7.95
2022-12-25T04:29:51.054Z,7.93
2022-12-25T04:32:36.853Z,7.93
2022-12-25T04:35:23.335Z,7.93
2022-12-25T04:37:50.624Z,7.97
2022-12-25T04:40:19.257Z,7.92
2022-12-25T04:42:46.634Z,8.01
2022-12-25T04:45:14.131Z,7.98
2022-12-25T04:47:41.332Z,8.01
2022-12-25T04:50:09.450Z,8.13
2022-12-25T04:52:39.533Z,8.07
2022-12-25T04:55:10.074Z,8.09
2022-12-25T04:57:37.693Z,8.16
2022-12-25T05:00:07.170Z,8.11
2022-12-25T05:02:34.781Z,8.16
2022-12-25T05:05:02.559Z,8.10
2022-12-25T05:07:29.898Z,8.18
2022-12-25T05:09:58.337Z,8.17
2022-12-25T05:12:25.660Z,8.09
2022-12-25T05:14:53.191Z,8.04
2022-12-25T05:17:20.566Z,7.91
2022-12-25T05:19:48.089Z,7.95
2022-12-25T05:22:15.397Z,7.90
2022-12-25T05:24:42.899Z,7.77
2022-12-25T05:27:10.149Z,7.65
2022-12-25T05:29:37.688Z,7.51
2022-12-25T05:32:05.311Z,7.39
2022-12-25T05:34:33.008Z,7.34
2022-12-25T05:37:00.354Z,7.16
2022-12-25T05:39:27.857Z,7.21
2022-12-25T05:41:55.223Z,7.20
2022-12-25T05:44:23.032Z,7.08
2022-12-25T05:46:50.449Z,7.05
2022-12-25T05:49:18.112Z,7.05
2022-12-25T05:51:45.376Z,6.98
2022-12-25T05:54:12.938Z,6.91
2022-12-25T05:56:40.145Z,6.94
2022-12-25T05:59:07.644Z,6.92
2022-12-25T06:01:34.973Z,6.85
2022-12-25T06:04:05.807Z,6.80
2022-12-25T06:06:37.556Z,6.71
2022-12-25T06:09:05.022Z,6.66
2022-12-25T06:11:32.275Z,6.60
2022-12-25T06:13:59.774Z,6.59
2022-12-25T06:16:27.078Z,6.63
2022-12-25T06:18:54.647Z,6.47
2022-12-25T06:21:22.122Z,6.61
2022-12-25T06:23:49.838Z,6.53
2022-12-25T06:26:19.549Z,6.44
2022-12-25T06:28:47.997Z,6.46
2022-12-25T06:31:20.888Z,6.45
2022-12-25T06:33:49.812Z,6.44
2022-12-25T06:36:22.806Z,6.41
2022-12-25T06:38:51.100Z,6.45
2022-12-25T06:41:25.489Z,6.43
2022-12-25T06:43:58.124Z,6.38
2022-12-25T06:46:28.639Z,6.36
2022-12-25T06:48:58.210Z,6.33
2022-12-25T06:51:30.166Z,6.35
2022-12-25T06:53:59.014Z,6.42
2022-12-25T06:56:28.641Z,6.39
2022-12-25T06:59:02.758Z,6.43
2022-12-25T07:02:12.875Z,6.43
2022-12-25T07:04:43.172Z,6.42
2022-12-25T07:07:10.860Z,6.47
2022-12-25T07:09:39.359Z,6.47
2022-12-25T07:12:19.960Z,6.53
2022-12-25T07:14:50.187Z,6.53
2022-12-25T07:17:18.933Z,6.63
2022-12-25T07:19:47.464Z,6.69
2022-12-25T07:22:15.845Z,6.67
2022-12-25T07:24:43.450Z,6.77
2022-12-25T07:27:11.091Z,6.84
2022-12-25T07:29:38.654Z,6.85
2022-12-25T07:32:07.033Z,6.85
2022-12-25T07:34:34.665Z,6.96
2022-12-25T07:37:02.011Z,7.03
2022-12-25T07:39:29.555Z,7.08
2022-12-25T07:41:56.886Z,7.15
2022-12-25T07:44:24.836Z,7.19
2022-12-25T07:46:52.125Z,7.31
2022-12-25T07:49:19.873Z,7.29
2022-12-25T07:51:47.167Z,7.41
2022-12-25T07:54:14.777Z,7.36
2022-12-25T07:56:41.975Z,7.40
2022-12-25T07:59:09.472Z,7.37
2022-12-25T08:01:36.830Z,7.50
2022-12-25T08:04:04.632Z,7.56
2022-12-25T08:06:35.208Z,7.62
2022-12-25T08:09:09.652Z,7.65
2022-12-25T08:11:38.461Z,7.62
2022-12-25T08:14:08.787Z,7.78
2022-12-25T08:16:39.966Z,7.87
2022-12-25T08:19:08.594Z,8.01
2022-12-25T08:21:36.263Z,7.97
2022-12-25T08:24:03.875Z,8.08
2022-12-25T08:26:31.528Z,7.95
2022-12-25T08:28:59.006Z,8.17
2022-12-25T08:31:30.018Z,8.28
2022-12-25T08:33:58.719Z,8.30
2022-12-25T08:36:26.384Z,8.58
2022-12-25T08:39:00.355Z,8.78
2022-12-25T08:41:30.231Z,9.23
2022-12-25T08:43:57.984Z,10.38
2022-12-25T08:46:25.579Z,12.79
2022-12-25T08:48:52.855Z,14.34
2022-12-25T08:51:23.416Z,16.04
2022-12-25T08:53:53.245Z,17.12
2022-12-25T08:56:21.233Z,17.84
2022-12-25T08:58:48.461Z,18.42
2022-12-25T09:01:15.989Z,19.69
2022-12-25T09:03:43.885Z,20.04
2022-12-25T09:06:16.562Z,20.31
2022-12-25T09:08:49.273Z,20.11
2022-12-25T09:11:19.967Z,21.12
2022-12-25T09:13:48.981Z,21.72
2022-12-25T09:16:21.232Z,22.19
2022-12-25T09:18:49.482Z,23.28
2022-12-25T09:21:19.255Z,24.05
2022-12-25T09:23:46.537Z,24.79
2022-12-25T09:26:18.063Z,25.39
2022-12-25T09:28:51.184Z,25.72
2022-12-25T09:31:22.059Z,27.08
2022-12-25T09:33:50.834Z,26.30
2022-12-25T09:36:18.794Z,27.60
2022-12-25T09:38:46.039Z,27.65
2022-12-25T09:41:53.760Z,27.35
2022-12-25T09:44:38.015Z,27.89
2022-12-25T09:47:14.336Z,28.43
2022-12-25T09:49:54.424Z,28.79
2022-12-25T09:52:52.790Z,29.02
2022-12-25T09:55:26.928Z,29.75
2022-12-25T09:58:01.573Z,29.83
2022-12-25T10:00:59.768Z,30.16
2022-12-25T10:03:40.785Z,31.16
2022-12-25T10:06:25.271Z,31.89
2022-12-25T10:09:36.077Z,31.01
2022-12-25T10:12:55.042Z,31.02
2022-12-25T10:15:59.020Z,32.68
2022-12-25T10:18:57.128Z,32.62
2022-12-25T10:21:25.408Z,33.02
2022-12-25T10:23:58.744Z,31.06
2022-12-25T10:26:30.018Z,31.21
2022-12-25T10:29:13.300Z,32.34
2022-12-25T10:31:45.432Z,33.46
2022-12-25T10:34:15.297Z,33.58
2022-12-25T10:36:46.402Z,31.90
2022-12-25T10:39:26.590Z,32.52
2022-12-25T10:42:40.597Z,32.91
2022-12-25T10:45:09.931Z,33.57
2022-12-25T10:47:42.667Z,32.78
2022-12-25T10:50:21.457Z,34.29
2022-12-25T10:53:04.443Z,34.39
2022-12-25T10:55:33.379Z,33.48
2022-12-25T10:58:02.306Z,33.41
2022-12-25T11:00:33.122Z,33.26
2022-12-25T11:03:01.149Z,32.61
2022-12-25T11:05:36.534Z,33.65
2022-12-25T11:08:15.766Z,31.86
2022-12-25T11:10:44.170Z,31.91
2022-12-25T11:13:30.784Z,33.00
2022-12-25T11:16:11.979Z,33.31
2022-12-25T11:18:53.773Z,33.23
2022-12-25T11:21:32.171Z,34.11
2022-12-25T11:24:06.925Z,34.35
2022-12-25T11:26:49.700Z,34.55
2022-12-25T11:29:39.018Z,33.79
2022-12-25T11:32:19.468Z,33.15
2022-12-25T11:34:49.184Z,32.41
2022-12-25T11:37:41.962Z,32.17
2022-12-25T11:40:41.719Z,32.38
2022-12-25T11:43:48.725Z,32.33
2022-12-25T11:46:31.388Z,33.51
2022-12-25T11:49:08.313Z,34.47
2022-12-25T11:51:43.610Z,34.46
2022-12-25T11:54:10.853Z,33.45
2022-12-25T11:56:38.763Z,34.13
2022-12-25T11:59:37.392Z,34.64
2022-12-25T12:02:49.637Z,33.72
2022-12-25T12:05:17.337Z,33.33
2022-12-25T12:08:06.475Z,32.90
2022-12-25T12:11:18.407Z,32.62
2022-12-25T12:14:14.985Z,32.13
2022-12-25T12:16:42.435Z,32.51
2022-12-25T12:19:34.581Z,32.79
2022-12-25T12:22:05.152Z,34.09
2022-12-25T12:24:44.305Z,35.14
2022-12-25T12:27:27.911Z,36.06
2022-12-25T12:29:59.787Z,37.19
2022-12-25T12:32:43.177Z,37.37
2022-12-25T12:35:28.020Z,35.66
2022-12-25T12:38:17.170Z,36.50
2022-12-25T12:41:04.748Z,35.64
2022-12-25T12:43:39.043Z,35.66
2022-12-25T12:46:31.571Z,36.25
2022-12-25T12:49:35.145Z,36.78
2022-12-25T12:52:23.914Z,36.54
2022-12-25T12:54:59.233Z,37.32
2022-12-25T12:57:32.828Z,37.86
2022-12-25T13:00:08.691Z,37.19
2022-12-25T13:03:06.136Z,37.33
2022-12-25T13:05:46.246Z,37.28
2022-12-25T13:09:15.849Z,37.15
2022-12-25T13:11:44.802Z,37.18
2022-12-25T13:14:23.182Z,35.98
2022-12-25T13:16:54.818Z,35.79
2022-12-25T13:19:27.538Z,34.94
2022-12-25T13:22:01.983Z,34.37
2022-12-25T13:24:34.230Z,33.77
2022-12-25T13:27:26.730Z,33.13
2022-12-25T13:29:54.597Z,33.36
2022-12-25T13:32:34.158Z,33.10
2022-12-25T13:35:02.340Z,32.39
2022-12-25T13:37:31.893Z,32.43
2022-12-25T13:40:07.298Z,32.26
2022-12-25T13:42:40.142Z,32.68
2022-12-25T13:45:14.531Z,31.37
2022-12-25T13:48:01.885Z,31.16
2022-12-25T13:50:34.647Z,30.92
2022-12-25T13:53:16.615Z,29.88
2022-12-25T13:55:55.524Z,29.44
2022-12-25T13:58:30.888Z,29.23
2022-12-25T14:01:03.063Z,28.62
2022-12-25T14:03:46.577Z,27.95
2022-12-25T14:06:20.655Z,27.25
2022-12-25T14:08:50.348Z,26.97
2022-12-25T14:11:25.780Z,25.88
2022-12-25T14:14:03.211Z,25.55
2022-12-25T14:16:32.744Z,24.89
2022-12-25T14:19:02.951Z,23.88
2022-12-25T14:21:41.857Z,23.33
2022-12-25T14:24:17.353Z,22.77
2022-12-25T14:26:45.135Z,22.02
2022-12-25T14:29:20.446Z,21.13
2022-12-25T14:31:50.190Z,19.92
2022-12-25T14:34:27.595Z,19.11
2022-12-25T14:36:55.568Z,18.25
2022-12-25T14:39:35.202Z,17.40
2022-12-25T14:42:20.693Z,16.52
2022-12-25T14:45:35.953Z,15.81
2022-12-25T14:48:25.461Z,15.17
2022-12-25T14:51:30.602Z,14.63
2022-12-25T14:54:03.368Z,14.40
2022-12-25T14:56:39.276Z,13.79
2022-12-25T14:59:10.292Z,13.47
2022-12-25T15:01:41.561Z,13.29
2022-12-25T15:04:12.117Z,12.93
2022-12-25T15:06:51.752Z,12.75
2022-12-25T15:09:19.527Z,12.66
2022-12-25T15:11:56.405Z,12.46
2022-12-25T15:14:26.215Z,12.51
2022-12-25T15:17:01.370Z,12.14
2022-12-25T15:19:38.869Z,12.07
2022-12-25T15:22:06.717Z,11.79
2022-12-25T15:24:34.252Z,11.60
2022-12-25T15:27:01.677Z,11.50
2022-12-25T15:30:07.976Z,11.38
2022-12-25T15:32:20.675Z,11.21
2022-12-25T15:34:50.050Z,11.16
2022-12-25T15:37:20.484Z,11.10
2022-12-25T15:39:47.978Z,11.08
2022-12-25T15:42:21.746Z,10.99
2022-12-25T15:44:49.966Z,10.94
2022-12-25T15:47:20.269Z,10.92
2022-12-25T15:49:47.976Z,10.96
2022-12-25T15:52:17.661Z,10.94
2022-12-25T15:54:45.460Z,10.83
2022-12-25T15:57:23.139Z,10.78
2022-12-25T15:59:50.660Z,10.74
2022-12-25T16:02:20.848Z,10.66
2022-12-25T16:04:51.080Z,10.68
2022-12-25T16:07:23.594Z,10.61
2022-12-25T16:09:52.014Z,10.55
2022-12-25T16:12:19.970Z,10.62
2022-12-25T16:14:47.532Z,10.66
2022-12-25T16:17:17.170Z,10.54
2022-12-25T16:19:45.545Z,10.49
2022-12-25T16:22:18.605Z,10.45
2022-12-25T16:24:51.908Z,10.29
2022-12-25T16:27:19.163Z,10.30
2022-12-25T16:29:47.226Z,10.30
2022-12-25T16:32:15.966Z,10.25
2022-12-25T16:34:43.671Z,10.21
2022-12-25T16:37:10.949Z,10.17
2022-12-25T16:39:38.580Z,10.24
2022-12-25T16:42:06.008Z,10.18
2022-12-25T16:44:37.611Z,10.08
2022-12-25T16:47:04.961Z,9.93
2022-12-25T16:49:32.644Z,9.81
2022-12-25T16:51:59.886Z,9.96
2022-12-25T16:54:27.528Z,9.88
2022-12-25T16:56:54.766Z,9.76
2022-12-25T16:59:22.359Z,9.75
2022-12-25T17:01:49.721Z,9.72
2022-12-25T17:04:17.350Z,9.74
2022-12-25T17:06:44.604Z,9.57
2022-12-25T17:09:12.386Z,9.52
2022-12-25T17:11:39.801Z,9.54
2022-12-25T17:14:07.430Z,9.51
2022-12-25T17:16:38.158Z,9.50
2022-12-25T17:19:15.967Z,9.44
2022-12-25T17:21:43.359Z,9.38
2022-12-25T17:24:10.975Z,9.38
2022-12-25T17:26:40.750Z,9.33
2022-12-25T17:29:10.327Z,9.24
2022-12-25T17:31:39.586Z,9.09
2022-12-25T17:34:09.108Z,9.13
2022-12-25T17:36:37.132Z,9.14
2022-12-25T17:39:06.439Z,9.16
2022-12-25T17:41:34.526Z,9.18
2022-12-25T17:44:02.613Z,9.30
2022-12-25T17:46:31.539Z,9.28
2022-12-25T17:49:01.191Z,9.26
2022-12-25T17:51:30.990Z,9.26
2022-12-25T17:54:03.354Z,9.20
2022-12-25T17:56:32.476Z,9.30
2022-12-25T17:59:08.212Z,9.27
2022-12-25T18:01:38.852Z,9.21
2022-12-25T18:04:07.375Z,9.18
2022-12-25T18:06:36.665Z,9.27
2022-12-25T18:09:06.386Z,9.31
2022-12-25T18:11:34.018Z,9.30
2022-12-25T18:14:07.343Z,9.23
2022-12-25T18:16:38.512Z,9.17
2022-12-25T18:19:06.813Z,9.17
2022-12-25T18:21:34.270Z,9.13
2022-12-25T18:24:06.445Z,9.02
2022-12-25T18:26:34.295Z,9.05
2022-12-25T18:29:02.328Z,9.03
2022-12-25T18:31:32.822Z,9.05
2022-12-25T18:34:00.816Z,9.02
2022-12-25T18:36:30.045Z,8.97
2022-12-25T18:38:58.933Z,8.92
2022-12-25T18:41:28.828Z,8.94
2022-12-25T18:43:59.829Z,8.87
2022-12-25T18:46:28.061Z,8.88
2022-12-25T18:48:57.193Z,8.83
2022-12-25T18:51:27.691Z,8.73
2022-12-25T18:53:58.809Z,8.71
2022-12-25T18:56:26.127Z,8.64
2022-12-25T18:58:53.628Z,8.65
2022-12-25T19:01:23.836Z,8.58
2022-12-25T19:03:56.066Z,8.66
2022-12-25T19:06:32.701Z,8.49
2022-12-25T19:09:00.334Z,8.53
2022-12-25T19:11:27.684Z,8.59
2022-12-25T19:13:56.035Z,8.59
2022-12-25T19:16:23.368Z,8.72
2022-12-25T19:18:50.993Z,8.72
2022-12-25T19:21:18.245Z,8.75
2022-12-25T19:23:45.972Z,8.78
2022-12-25T19:26:13.294Z,8.72
2022-12-25T19:28:41.488Z,8.72
2022-12-25T19:31:10.132Z,8.76
2022-12-25T19:33:40.470Z,8.81
2022-12-25T19:36:12.852Z,8.75
2022-12-25T19:38:40.974Z,8.82
2022-12-25T19:41:17.828Z,8.68
2022-12-25T19:43:48.196Z,8.68
2022-12-25T19:46:26.282Z,8.75
2022-12-25T19:48:56.307Z,8.65
2022-12-25T19:51:29.056Z,8.66
2022-12-25T19:53:57.098Z,8.63
2022-12-25T19:56:26.784Z,8.61
2022-12-25T19:58:55.775Z,8.67
2022-12-25T20:01:27.436Z,8.68
2022-12-25T20:03:55.763Z,8.71
2022-12-25T20:06:32.852Z,8.65
2022-12-25T20:09:07.410Z,8.64
2022-12-25T20:11:37.304Z,8.71
2022-12-25T20:14:07.355Z,8.64
2022-12-25T20:16:38.743Z,8.59
2022-12-25T20:19:07.723Z,8.58
2022-12-25T20:21:35.432Z,8.51
2022-12-25T20:24:03.255Z,8.55
2022-12-25T20:26:32.392Z,8.59
2022-12-25T20:29:00.123Z,8.47
2022-12-25T20:31:31.343Z,8.35
2022-12-25T20:34:06.083Z,8.29
2022-12-25T20:36:37.760Z,8.22
2022-12-25T20:39:09.997Z,8.28
2022-12-25T20:41:39.742Z,8.27
2022-12-25T20:44:10.381Z,8.28
2022-12-25T20:46:38.192Z,8.31
2022-12-25T20:49:06.094Z,8.29
2022-12-25T20:51:33.605Z,8.31
2022-12-25T20:54:06.508Z,8.30
2022-12-25T20:56:34.405Z,8.19
2022-12-25T20:59:02.952Z,8.28
2022-12-25T21:01:31.885Z,8.28
2022-12-25T21:03:59.723Z,8.17
2022-12-25T21:06:27.296Z,8.16
2022-12-25T21:08:55.008Z,8.08
2022-12-25T21:11:22.781Z,8.01
2022-12-25T21:13:50.814Z,8.14
2022-12-25T21:16:22.361Z,8.09
2022-12-25T21:18:53.261Z,8.02
2022-12-25T21:21:21.925Z,8.06
2022-12-25T21:23:49.685Z,8.00
2022-12-25T21:26:28.989Z,7.95
2022-12-25T21:29:00.564Z,7.94
2022-12-25T21:31:29.148Z,7.92
2022-12-25T21:33:57.941Z,7.85
2022-12-25T21:36:34.612Z,7.96
2022-12-25T21:39:10.837Z,7.91
2022-12-25T21:41:39.543Z,7.95
2022-12-25T21:44:08.842Z,7.99
2022-12-25T21:46:36.216Z,7.98
2022-12-25T21:49:04.254Z,7.84
2022-12-25T21:51:52.796Z,7.83
2022-12-25T21:54:23.104Z,7.79
2022-12-25T21:56:50.983Z,7.73
2022-12-25T21:59:21.831Z,7.76
2022-12-25T22:01:51.817Z,7.77
2022-12-25T22:04:23.337Z,7.78
2022-12-25T22:07:09.471Z,7.57
2022-12-25T22:09:37.865Z,7.63
2022-12-25T22:12:28.565Z,7.62
2022-12-25T22:15:06.353Z,7.58
2022-12-25T22:17:58.511Z,7.61
2022-12-25T22:20:38.200Z,7.59
2022-12-25T22:23:05.984Z,7.62
2022-12-25T22:25:33.661Z,7.57
2022-12-25T22:28:00.999Z,7.59
2022-12-25T22:30:29.778Z,7.57
2022-12-25T22:32:57.587Z,7.57
2022-12-25T22:35:25.727Z,7.55
2022-12-25T22:37:54.254Z,7.58
2022-12-25T22:40:22.668Z,7.62
2022-12-25T22:42:54.032Z,7.63
2022-12-25T22:45:21.882Z,7.64
2022-12-25T22:47:50.281Z,7.72
2022-12-25T22:50:18.025Z,7.71
2022-12-25T22:52:46.694Z,7.62
2022-12-25T22:55:18.631Z,7.64
2022-12-25T22:57:46.211Z,7.68
2022-12-25T23:00:14.288Z,7.69
2022-12-25T23:02:41.792Z,7.61
2022-12-25T23:05:09.673Z,7.62
2022-12-25T23:07:37.083Z,7.66
2022-12-25T23:10:06.777Z,7.77
2022-12-25T23:12:53.004Z,7.69
2022-12-25T23:15:20.648Z,7.75
2022-12-25T23:18:06.632Z,7.78
2022-12-25T23:20:52.974Z,7.79
2022-12-25T23:23:38.810Z,7.80
2022-12-25T23:26:09.652Z,7.78
2022-12-25T23:29:01.030Z,7.76
2022-12-25T23:31:36.909Z,7.76
2022-12-25T23:34:06.735Z,7.65
2022-12-25T23:36:35.136Z,7.62
2022-12-25T23:39:09.692Z,7.70
2022-12-25T23:41:40.491Z,7.73
2022-12-25T23:44:10.256Z,7.72
2022-12-25T23:46:38.784Z,7.72
2022-12-25T23:49:06.952Z,7.68
2022-12-25T23:51:43.633Z,7.64
2022-12-25T23:54:18.679Z,7.55
2022-12-25T23:56:46.458Z,7.46
2022-12-25T23:59:14.695Z,7.38
